sensor_id;sensor_type;location;lat;lon;timestamp;P1;durP1;ratioP1;P2;durP2;ratioP2
751;SDS011;360;48.764;9.164;2022-09-29T00:00:19;1.70;;;1.60;;
751;SDS011;360;48.764;9.164;2022-09-29T00:02:46;2.10;;;1.53;;
751;SDS011;360;48.764;9.164;2022-09-29T00:05:14;2.77;;;1.60;;
751;SDS011;360;48.764;9.164;2022-09-29T00:07:41;2.57;;;1.53;;
751;SDS011;360;48.764;9.164;2022-09-29T00:10:09;3.50;;;2.07;;
751;SDS011;360;48.764;9.164;2022-09-29T00:12:36;2.33;;;1.53;;
751;SDS011;360;48.764;9.164;2022-09-29T00:15:04;3.93;;;1.63;;
751;SDS011;360;48.764;9.164;2022-09-29T00:17:31;2.27;;;1.80;;
751;SDS011;360;48.764;9.164;2022-09-29T00:19:58;3.43;;;2.57;;
751;SDS011;360;48.764;9.164;2022-09-29T00:22:25;2.40;;;1.40;;
751;SDS011;360;48.764;9.164;2022-09-29T00:24:52;1.90;;;1.80;;
751;SDS011;360;48.764;9.164;2022-09-29T00:27:21;2.80;;;1.70;;
751;SDS011;360;48.764;9.164;2022-09-29T00:29:48;2.57;;;1.50;;
751;SDS011;360;48.764;9.164;2022-09-29T00:32:15;2.03;;;1.57;;
751;SDS011;360;48.764;9.164;2022-09-29T00:34:42;2.50;;;1.40;;
751;SDS011;360;48.764;9.164;2022-09-29T00:37:09;2.73;;;1.77;;
751;SDS011;360;48.764;9.164;2022-09-29T00:39:37;1.50;;;1.40;;
751;SDS011;360;48.764;9.164;2022-09-29T00:42:04;2.33;;;2.07;;
751;SDS011;360;48.764;9.164;2022-09-29T00:44:54;2.33;;;1.70;;
751;SDS011;360;48.764;9.164;2022-09-29T00:47:23;6.43;;;1.67;;
751;SDS011;360;48.764;9.164;2022-09-29T00:49:51;2.17;;;1.93;;
751;SDS011;360;48.764;9.164;2022-09-29T00:52:22;3.77;;;1.97;;
751;SDS011;360;48.764;9.164;2022-09-29T00:54:51;3.60;;;1.43;;
751;SDS011;360;48.764;9.164;2022-09-29T00:57:20;6.37;;;1.60;;
751;SDS011;360;48.764;9.164;2022-09-29T00:59:48;2.20;;;1.80;;
751;SDS011;360;48.764;9.164;2022-09-29T01:02:18;3.43;;;1.77;;
751;SDS011;360;48.764;9.164;2022-09-29T01:04:46;3.27;;;2.37;;
751;SDS011;360;48.764;9.164;2022-09-29T01:07:13;3.67;;;1.93;;
751;SDS011;360;48.764;9.164;2022-09-29T01:09:40;3.00;;;1.93;;
751;SDS011;360;48.764;9.164;2022-09-29T01:12:09;2.33;;;1.77;;
751;SDS011;360;48.764;9.164;2022-09-29T01:14:36;3.23;;;1.63;;
751;SDS011;360;48.764;9.164;2022-09-29T01:17:04;3.87;;;1.53;;
751;SDS011;360;48.764;9.164;2022-09-29T01:19:35;2.10;;;1.60;;
751;SDS011;360;48.764;9.164;2022-09-29T01:22:06;5.23;;;3.23;;
751;SDS011;360;48.764;9.164;2022-09-29T01:30:13;3.27;;;1.90;;
751;SDS011;360;48.764;9.164;2022-09-29T01:32:48;1.90;;;1.70;;
751;SDS011;360;48.764;9.164;2022-09-29T01:35:19;2.17;;;1.97;;
751;SDS011;360;48.764;9.164;2022-09-29T01:37:52;3.47;;;1.70;;
751;SDS011;360;48.764;9.164;2022-09-29T01:40:22;2.07;;;1.67;;
751;SDS011;360;48.764;9.164;2022-09-29T01:42:54;3.40;;;2.00;;
751;SDS011;360;48.764;9.164;2022-09-29T01:45:24;2.87;;;2.30;;
751;SDS011;360;48.764;9.164;2022-09-29T01:47:55;2.77;;;2.20;;
751;SDS011;360;48.764;9.164;2022-09-29T01:50:25;3.50;;;2.53;;
751;SDS011;360;48.764;9.164;2022-09-29T01:52:55;1.60;;;1.43;;
751;SDS011;360;48.764;9.164;2022-09-29T01:55:25;4.43;;;1.90;;
751;SDS011;360;48.764;9.164;2022-09-29T01:57:55;4.80;;;1.90;;
751;SDS011;360;48.764;9.164;2022-09-29T02:00:24;2.57;;;1.70;;
751;SDS011;360;48.764;9.164;2022-09-29T02:02:57;3.00;;;1.70;;
751;SDS011;360;48.764;9.164;2022-09-29T02:05:29;4.07;;;1.47;;
751;SDS011;360;48.764;9.164;2022-09-29T02:08:00;2.43;;;1.43;;
751;SDS011;360;48.764;9.164;2022-09-29T02:10:29;1.43;;;1.30;;
751;SDS011;360;48.764;9.164;2022-09-29T02:12:58;1.73;;;1.47;;
751;SDS011;360;48.764;9.164;2022-09-29T02:15:27;4.00;;;2.00;;
751;SDS011;360;48.764;9.164;2022-09-29T02:17:58;3.00;;;1.90;;
751;SDS011;360;48.764;9.164;2022-09-29T02:20:28;2.00;;;1.47;;
751;SDS011;360;48.764;9.164;2022-09-29T02:22:56;3.03;;;1.37;;
751;SDS011;360;48.764;9.164;2022-09-29T02:25:23;1.27;;;1.13;;
751;SDS011;360;48.764;9.164;2022-09-29T02:27:50;2.50;;;1.60;;
751;SDS011;360;48.764;9.164;2022-09-29T02:30:17;3.83;;;2.10;;
751;SDS011;360;48.764;9.164;2022-09-29T02:32:45;4.07;;;2.13;;
751;SDS011;360;48.764;9.164;2022-09-29T02:35:14;2.73;;;1.67;;
751;SDS011;360;48.764;9.164;2022-09-29T02:37:51;3.90;;;1.57;;
751;SDS011;360;48.764;9.164;2022-09-29T02:40:27;3.77;;;1.50;;
751;SDS011;360;48.764;9.164;2022-09-29T02:45:47;3.57;;;1.57;;
751;SDS011;360;48.764;9.164;2022-09-29T02:48:26;2.20;;;2.00;;
751;SDS011;360;48.764;9.164;2022-09-29T02:51:00;2.50;;;1.53;;
751;SDS011;360;48.764;9.164;2022-09-29T02:53:33;1.57;;;1.40;;
751;SDS011;360;48.764;9.164;2022-09-29T02:56:03;1.60;;;1.50;;
751;SDS011;360;48.764;9.164;2022-09-29T02:58:35;2.43;;;1.27;;
751;SDS011;360;48.764;9.164;2022-09-29T03:01:04;1.40;;;1.30;;
751;SDS011;360;48.764;9.164;2022-09-29T03:03:32;2.47;;;1.87;;
751;SDS011;360;48.764;9.164;2022-09-29T03:06:00;3.20;;;1.50;;
751;SDS011;360;48.764;9.164;2022-09-29T03:08:27;2.80;;;1.60;;
751;SDS011;360;48.764;9.164;2022-09-29T03:10:56;3.17;;;1.70;;
751;SDS011;360;48.764;9.164;2022-09-29T03:13:23;2.40;;;1.60;;
751;SDS011;360;48.764;9.164;2022-09-29T03:15:50;3.30;;;1.70;;
751;SDS011;360;48.764;9.164;2022-09-29T03:18:17;2.53;;;1.97;;
751;SDS011;360;48.764;9.164;2022-09-29T03:20:46;2.67;;;2.00;;
751;SDS011;360;48.764;9.164;2022-09-29T03:23:15;2.10;;;1.67;;
751;SDS011;360;48.764;9.164;2022-09-29T03:25:42;3.37;;;1.60;;
751;SDS011;360;48.764;9.164;2022-09-29T03:28:09;3.43;;;2.13;;
751;SDS011;360;48.764;9.164;2022-09-29T03:30:36;2.20;;;1.50;;
751;SDS011;360;48.764;9.164;2022-09-29T03:33:03;2.37;;;1.53;;
751;SDS011;360;48.764;9.164;2022-09-29T03:35:31;3.50;;;1.70;;
751;SDS011;360;48.764;9.164;2022-09-29T03:37:58;1.63;;;1.23;;
751;SDS011;360;48.764;9.164;2022-09-29T03:40:26;1.60;;;1.30;;
751;SDS011;360;48.764;9.164;2022-09-29T03:42:54;3.27;;;1.80;;
751;SDS011;360;48.764;9.164;2022-09-29T03:45:21;2.87;;;1.30;;
751;SDS011;360;48.764;9.164;2022-09-29T03:47:48;2.20;;;1.90;;
751;SDS011;360;48.764;9.164;2022-09-29T03:50:15;2.03;;;1.47;;
751;SDS011;360;48.764;9.164;2022-09-29T03:52:42;2.07;;;1.17;;
751;SDS011;360;48.764;9.164;2022-09-29T03:55:09;2.43;;;1.30;;
751;SDS011;360;48.764;9.164;2022-09-29T03:57:38;2.37;;;1.70;;
751;SDS011;360;48.764;9.164;2022-09-29T04:00:05;2.73;;;1.80;;
751;SDS011;360;48.764;9.164;2022-09-29T04:02:33;2.90;;;1.93;;
751;SDS011;360;48.764;9.164;2022-09-29T04:05:00;6.63;;;1.73;;
751;SDS011;360;48.764;9.164;2022-09-29T04:07:27;3.43;;;1.60;;
751;SDS011;360;48.764;9.164;2022-09-29T04:09:55;2.47;;;1.73;;
751;SDS011;360;48.764;9.164;2022-09-29T04:12:23;2.23;;;1.40;;
751;SDS011;360;48.764;9.164;2022-09-29T04:14:52;2.43;;;1.70;;
751;SDS011;360;48.764;9.164;2022-09-29T04:17:19;2.77;;;2.33;;
751;SDS011;360;48.764;9.164;2022-09-29T04:19:46;2.03;;;1.70;;
751;SDS011;360;48.764;9.164;2022-09-29T04:22:13;1.93;;;1.40;;
751;SDS011;360;48.764;9.164;2022-09-29T04:24:42;1.97;;;1.53;;
751;SDS011;360;48.764;9.164;2022-09-29T04:27:09;2.93;;;1.60;;
751;SDS011;360;48.764;9.164;2022-09-29T04:29:36;2.77;;;1.77;;
751;SDS011;360;48.764;9.164;2022-09-29T04:32:05;4.13;;;1.70;;
751;SDS011;360;48.764;9.164;2022-09-29T04:34:32;2.37;;;1.73;;
751;SDS011;360;48.764;9.164;2022-09-29T04:36:59;3.70;;;2.80;;
751;SDS011;360;48.764;9.164;2022-09-29T04:39:27;2.50;;;1.70;;
751;SDS011;360;48.764;9.164;2022-09-29T04:41:54;2.47;;;1.40;;
751;SDS011;360;48.764;9.164;2022-09-29T04:44:21;3.23;;;2.27;;
751;SDS011;360;48.764;9.164;2022-09-29T04:46:49;1.90;;;1.60;;
751;SDS011;360;48.764;9.164;2022-09-29T04:49:17;2.23;;;1.60;;
751;SDS011;360;48.764;9.164;2022-09-29T04:51:44;2.20;;;2.00;;
751;SDS011;360;48.764;9.164;2022-09-29T04:54:12;3.43;;;2.53;;
751;SDS011;360;48.764;9.164;2022-09-29T04:56:39;1.90;;;1.53;;
751;SDS011;360;48.764;9.164;2022-09-29T04:59:06;2.50;;;1.60;;
751;SDS011;360;48.764;9.164;2022-09-29T05:01:33;1.50;;;1.27;;
751;SDS011;360;48.764;9.164;2022-09-29T05:04:00;1.53;;;1.37;;
751;SDS011;360;48.764;9.164;2022-09-29T05:06:29;2.50;;;1.67;;
751;SDS011;360;48.764;9.164;2022-09-29T05:08:56;5.30;;;1.83;;
751;SDS011;360;48.764;9.164;2022-09-29T05:11:23;2.57;;;1.60;;
751;SDS011;360;48.764;9.164;2022-09-29T05:13:50;3.47;;;1.77;;
751;SDS011;360;48.764;9.164;2022-09-29T05:16:17;3.53;;;1.90;;
751;SDS011;360;48.764;9.164;2022-09-29T05:18:44;2.60;;;2.30;;
751;SDS011;360;48.764;9.164;2022-09-29T05:21:12;2.10;;;1.80;;
751;SDS011;360;48.764;9.164;2022-09-29T05:23:40;2.47;;;1.40;;
751;SDS011;360;48.764;9.164;2022-09-29T05:26:08;3.53;;;1.57;;
751;SDS011;360;48.764;9.164;2022-09-29T05:28:35;2.57;;;1.77;;
751;SDS011;360;48.764;9.164;2022-09-29T05:31:03;2.67;;;1.70;;
751;SDS011;360;48.764;9.164;2022-09-29T05:33:31;6.00;;;1.97;;
751;SDS011;360;48.764;9.164;2022-09-29T05:35:58;1.90;;;1.50;;
751;SDS011;360;48.764;9.164;2022-09-29T05:38:25;2.80;;;1.80;;
751;SDS011;360;48.764;9.164;2022-09-29T05:40:54;3.03;;;2.40;;
751;SDS011;360;48.764;9.164;2022-09-29T05:43:21;3.50;;;1.70;;
751;SDS011;360;48.764;9.164;2022-09-29T05:45:49;2.30;;;1.67;;
751;SDS011;360;48.764;9.164;2022-09-29T05:48:16;3.23;;;1.60;;
751;SDS011;360;48.764;9.164;2022-09-29T05:50:43;2.07;;;1.70;;
751;SDS011;360;48.764;9.164;2022-09-29T05:53:10;3.80;;;1.93;;
751;SDS011;360;48.764;9.164;2022-09-29T05:55:38;3.40;;;2.03;;
751;SDS011;360;48.764;9.164;2022-09-29T05:58:06;3.17;;;2.00;;
751;SDS011;360;48.764;9.164;2022-09-29T06:00:33;3.10;;;2.03;;
751;SDS011;360;48.764;9.164;2022-09-29T06:03:01;4.50;;;2.43;;
751;SDS011;360;48.764;9.164;2022-09-29T06:05:28;2.33;;;1.77;;
751;SDS011;360;48.764;9.164;2022-09-29T06:07:55;3.70;;;2.10;;
751;SDS011;360;48.764;9.164;2022-09-29T06:10:23;7.93;;;2.13;;
751;SDS011;360;48.764;9.164;2022-09-29T06:12:50;1.73;;;1.63;;
751;SDS011;360;48.764;9.164;2022-09-29T06:15:18;3.20;;;2.43;;
751;SDS011;360;48.764;9.164;2022-09-29T06:17:45;3.63;;;2.13;;
751;SDS011;360;48.764;9.164;2022-09-29T06:20:12;2.90;;;2.00;;
751;SDS011;360;48.764;9.164;2022-09-29T06:22:40;2.43;;;2.00;;
751;SDS011;360;48.764;9.164;2022-09-29T06:25:07;2.83;;;1.90;;
751;SDS011;360;48.764;9.164;2022-09-29T06:27:34;1.93;;;1.73;;
751;SDS011;360;48.764;9.164;2022-09-29T06:30:01;3.30;;;1.87;;
751;SDS011;360;48.764;9.164;2022-09-29T06:32:30;3.53;;;1.90;;
751;SDS011;360;48.764;9.164;2022-09-29T06:34:58;4.20;;;2.47;;
751;SDS011;360;48.764;9.164;2022-09-29T06:37:42;2.37;;;1.93;;
751;SDS011;360;48.764;9.164;2022-09-29T06:40:11;4.60;;;2.43;;
751;SDS011;360;48.764;9.164;2022-09-29T06:42:39;4.20;;;2.70;;
751;SDS011;360;48.764;9.164;2022-09-29T06:45:06;2.87;;;2.60;;
751;SDS011;360;48.764;9.164;2022-09-29T06:47:36;3.13;;;2.00;;
751;SDS011;360;48.764;9.164;2022-09-29T06:50:03;9.07;;;3.37;;
751;SDS011;360;48.764;9.164;2022-09-29T06:52:31;7.00;;;2.43;;
751;SDS011;360;48.764;9.164;2022-09-29T06:54:58;3.50;;;2.53;;
751;SDS011;360;48.764;9.164;2022-09-29T06:57:25;3.53;;;2.17;;
751;SDS011;360;48.764;9.164;2022-09-29T06:59:52;3.03;;;2.07;;
751;SDS011;360;48.764;9.164;2022-09-29T07:02:19;2.47;;;2.10;;
751;SDS011;360;48.764;9.164;2022-09-29T07:04:47;2.80;;;2.10;;
751;SDS011;360;48.764;9.164;2022-09-29T07:07:15;6.00;;;2.90;;
751;SDS011;360;48.764;9.164;2022-09-29T07:09:42;3.40;;;2.00;;
751;SDS011;360;48.764;9.164;2022-09-29T07:12:09;2.87;;;2.40;;
751;SDS011;360;48.764;9.164;2022-09-29T07:14:37;4.00;;;2.50;;
751;SDS011;360;48.764;9.164;2022-09-29T07:17:04;3.80;;;2.70;;
751;SDS011;360;48.764;9.164;2022-09-29T07:19:33;3.83;;;2.70;;
751;SDS011;360;48.764;9.164;2022-09-29T07:22:01;4.20;;;2.80;;
751;SDS011;360;48.764;9.164;2022-09-29T07:24:30;8.27;;;3.30;;
751;SDS011;360;48.764;9.164;2022-09-29T07:26:57;4.93;;;2.50;;
751;SDS011;360;48.764;9.164;2022-09-29T07:29:24;9.50;;;2.23;;
751;SDS011;360;48.764;9.164;2022-09-29T07:31:51;2.87;;;2.53;;
751;SDS011;360;48.764;9.164;2022-09-29T07:34:19;2.73;;;2.37;;
751;SDS011;360;48.764;9.164;2022-09-29T07:36:46;3.90;;;2.67;;
751;SDS011;360;48.764;9.164;2022-09-29T07:39:15;3.00;;;2.47;;
751;SDS011;360;48.764;9.164;2022-09-29T07:41:42;4.57;;;2.80;;
751;SDS011;360;48.764;9.164;2022-09-29T07:44:09;2.93;;;2.10;;
751;SDS011;360;48.764;9.164;2022-09-29T07:46:36;3.90;;;2.77;;
751;SDS011;360;48.764;9.164;2022-09-29T07:49:03;4.30;;;2.57;;
751;SDS011;360;48.764;9.164;2022-09-29T07:51:30;4.03;;;2.70;;
751;SDS011;360;48.764;9.164;2022-09-29T07:54:00;4.57;;;3.07;;
751;SDS011;360;48.764;9.164;2022-09-29T07:56:29;4.03;;;2.50;;
751;SDS011;360;48.764;9.164;2022-09-29T07:58:57;4.40;;;2.40;;
751;SDS011;360;48.764;9.164;2022-09-29T08:01:24;3.20;;;2.50;;
751;SDS011;360;48.764;9.164;2022-09-29T08:03:52;3.83;;;3.23;;
751;SDS011;360;48.764;9.164;2022-09-29T08:06:20;4.60;;;3.10;;
751;SDS011;360;48.764;9.164;2022-09-29T08:08:47;3.07;;;2.67;;
751;SDS011;360;48.764;9.164;2022-09-29T08:11:15;3.87;;;3.10;;
751;SDS011;360;48.764;9.164;2022-09-29T08:13:45;3.40;;;3.10;;
751;SDS011;360;48.764;9.164;2022-09-29T08:16:13;3.17;;;2.87;;
751;SDS011;360;48.764;9.164;2022-09-29T08:18:40;4.03;;;2.27;;
751;SDS011;360;48.764;9.164;2022-09-29T08:21:09;2.60;;;1.70;;
751;SDS011;360;48.764;9.164;2022-09-29T08:23:36;4.93;;;2.70;;
751;SDS011;360;48.764;9.164;2022-09-29T08:26:04;2.80;;;2.00;;
751;SDS011;360;48.764;9.164;2022-09-29T08:28:33;5.53;;;2.80;;
751;SDS011;360;48.764;9.164;2022-09-29T08:31:02;2.97;;;1.50;;
751;SDS011;360;48.764;9.164;2022-09-29T08:33:29;3.10;;;2.80;;
751;SDS011;360;48.764;9.164;2022-09-29T08:35:57;5.93;;;2.60;;
751;SDS011;360;48.764;9.164;2022-09-29T08:38:24;3.10;;;2.07;;
751;SDS011;360;48.764;9.164;2022-09-29T08:40:52;3.17;;;2.30;;
751;SDS011;360;48.764;9.164;2022-09-29T08:43:21;3.83;;;2.33;;
751;SDS011;360;48.764;9.164;2022-09-29T08:45:53;3.70;;;2.27;;
751;SDS011;360;48.764;9.164;2022-09-29T08:48:24;6.90;;;2.70;;
751;SDS011;360;48.764;9.164;2022-09-29T08:50:54;2.60;;;1.90;;
751;SDS011;360;48.764;9.164;2022-09-29T08:53:22;4.60;;;2.30;;
751;SDS011;360;48.764;9.164;2022-09-29T08:55:51;3.17;;;2.17;;
751;SDS011;360;48.764;9.164;2022-09-29T08:58:20;2.60;;;2.03;;
751;SDS011;360;48.764;9.164;2022-09-29T09:00:49;4.67;;;2.57;;
751;SDS011;360;48.764;9.164;2022-09-29T09:03:32;2.13;;;1.70;;
751;SDS011;360;48.764;9.164;2022-09-29T09:06:15;3.63;;;1.80;;
751;SDS011;360;48.764;9.164;2022-09-29T09:08:56;4.00;;;2.17;;
751;SDS011;360;48.764;9.164;2022-09-29T09:11:42;4.67;;;2.50;;
751;SDS011;360;48.764;9.164;2022-09-29T09:14:30;1.63;;;1.53;;
751;SDS011;360;48.764;9.164;2022-09-29T09:17:21;3.03;;;1.87;;
751;SDS011;360;48.764;9.164;2022-09-29T09:22:52;3.27;;;1.50;;
751;SDS011;360;48.764;9.164;2022-09-29T09:25:26;2.93;;;1.43;;
751;SDS011;360;48.764;9.164;2022-09-29T09:27:58;3.90;;;2.20;;
751;SDS011;360;48.764;9.164;2022-09-29T09:30:34;3.83;;;1.87;;
751;SDS011;360;48.764;9.164;2022-09-29T09:33:05;3.30;;;1.93;;
751;SDS011;360;48.764;9.164;2022-09-29T09:35:42;2.50;;;1.70;;
751;SDS011;360;48.764;9.164;2022-09-29T09:38:14;2.97;;;1.93;;
751;SDS011;360;48.764;9.164;2022-09-29T09:40:44;2.23;;;1.90;;
751;SDS011;360;48.764;9.164;2022-09-29T09:43:15;1.93;;;1.47;;
751;SDS011;360;48.764;9.164;2022-09-29T09:45:46;1.63;;;1.23;;
751;SDS011;360;48.764;9.164;2022-09-29T09:48:19;2.20;;;1.30;;
751;SDS011;360;48.764;9.164;2022-09-29T09:50:52;2.67;;;1.47;;
751;SDS011;360;48.764;9.164;2022-09-29T09:53:19;1.33;;;1.23;;
751;SDS011;360;48.764;9.164;2022-09-29T09:55:52;1.40;;;1.27;;
751;SDS011;360;48.764;9.164;2022-09-29T09:58:44;1.40;;;1.30;;
751;SDS011;360;48.764;9.164;2022-09-29T10:01:36;3.67;;;1.77;;
751;SDS011;360;48.764;9.164;2022-09-29T10:04:03;1.90;;;1.33;;
751;SDS011;360;48.764;9.164;2022-09-29T10:06:32;1.63;;;1.23;;
751;SDS011;360;48.764;9.164;2022-09-29T10:08:59;3.97;;;1.30;;
751;SDS011;360;48.764;9.164;2022-09-29T10:11:26;1.77;;;1.60;;
751;SDS011;360;48.764;9.164;2022-09-29T10:13:57;2.53;;;1.37;;
751;SDS011;360;48.764;9.164;2022-09-29T10:16:28;2.63;;;1.60;;
751;SDS011;360;48.764;9.164;2022-09-29T10:19:00;1.90;;;1.20;;
751;SDS011;360;48.764;9.164;2022-09-29T10:21:38;1.87;;;1.10;;
751;SDS011;360;48.764;9.164;2022-09-29T10:24:19;1.60;;;1.47;;
751;SDS011;360;48.764;9.164;2022-09-29T10:26:48;1.30;;;1.13;;
751;SDS011;360;48.764;9.164;2022-09-29T10:29:22;2.90;;;1.43;;
751;SDS011;360;48.764;9.164;2022-09-29T10:31:58;2.13;;;1.50;;
751;SDS011;360;48.764;9.164;2022-09-29T10:34:28;2.90;;;1.73;;
751;SDS011;360;48.764;9.164;2022-09-29T10:36:58;1.63;;;1.03;;
751;SDS011;360;48.764;9.164;2022-09-29T10:39:31;1.10;;;1.00;;
751;SDS011;360;48.764;9.164;2022-09-29T10:41:59;2.17;;;1.67;;
751;SDS011;360;48.764;9.164;2022-09-29T10:44:30;2.60;;;1.43;;
751;SDS011;360;48.764;9.164;2022-09-29T10:46:58;1.70;;;1.40;;
751;SDS011;360;48.764;9.164;2022-09-29T10:49:26;4.00;;;1.00;;
751;SDS011;360;48.764;9.164;2022-09-29T10:51:55;1.70;;;1.07;;
751;SDS011;360;48.764;9.164;2022-09-29T10:54:25;1.40;;;0.90;;
751;SDS011;360;48.764;9.164;2022-09-29T10:56:52;1.87;;;1.30;;
751;SDS011;360;48.764;9.164;2022-09-29T10:59:20;1.27;;;0.90;;
751;SDS011;360;48.764;9.164;2022-09-29T11:01:48;2.57;;;0.77;;
751;SDS011;360;48.764;9.164;2022-09-29T11:04:17;3.13;;;1.10;;
751;SDS011;360;48.764;9.164;2022-09-29T11:06:45;1.60;;;1.23;;
751;SDS011;360;48.764;9.164;2022-09-29T11:09:27;1.57;;;1.03;;
751;SDS011;360;48.764;9.164;2022-09-29T11:11:55;2.33;;;0.97;;
751;SDS011;360;48.764;9.164;2022-09-29T11:14:24;1.77;;;1.23;;
751;SDS011;360;48.764;9.164;2022-09-29T11:16:52;1.50;;;1.23;;
751;SDS011;360;48.764;9.164;2022-09-29T11:19:19;1.20;;;0.80;;
751;SDS011;360;48.764;9.164;2022-09-29T11:24:46;1.10;;;0.80;;
751;SDS011;360;48.764;9.164;2022-09-29T11:27:22;2.90;;;1.47;;
751;SDS011;360;48.764;9.164;2022-09-29T11:29:54;1.27;;;0.97;;
751;SDS011;360;48.764;9.164;2022-09-29T11:32:29;1.60;;;1.23;;
751;SDS011;360;48.764;9.164;2022-09-29T11:35:13;1.13;;;0.80;;
751;SDS011;360;48.764;9.164;2022-09-29T11:37:57;1.93;;;1.00;;
751;SDS011;360;48.764;9.164;2022-09-29T11:40:30;5.00;;;1.30;;
751;SDS011;360;48.764;9.164;2022-09-29T11:43:05;3.73;;;1.40;;
751;SDS011;360;48.764;9.164;2022-09-29T11:45:37;2.50;;;1.20;;
751;SDS011;360;48.764;9.164;2022-09-29T11:48:22;1.93;;;1.50;;
751;SDS011;360;48.764;9.164;2022-09-29T11:50:54;2.33;;;1.33;;
751;SDS011;360;48.764;9.164;2022-09-29T11:53:26;2.13;;;1.40;;
751;SDS011;360;48.764;9.164;2022-09-29T11:55:59;1.60;;;1.00;;
751;SDS011;360;48.764;9.164;2022-09-29T11:58:34;1.83;;;0.90;;
751;SDS011;360;48.764;9.164;2022-09-29T12:01:08;1.80;;;1.10;;
751;SDS011;360;48.764;9.164;2022-09-29T12:03:40;1.73;;;1.20;;
751;SDS011;360;48.764;9.164;2022-09-29T12:06:21;1.93;;;1.47;;
751;SDS011;360;48.764;9.164;2022-09-29T12:08:57;1.17;;;0.90;;
751;SDS011;360;48.764;9.164;2022-09-29T12:11:31;2.93;;;1.60;;
751;SDS011;360;48.764;9.164;2022-09-29T12:14:03;2.43;;;1.07;;
751;SDS011;360;48.764;9.164;2022-09-29T12:16:35;2.60;;;0.90;;
751;SDS011;360;48.764;9.164;2022-09-29T12:19:05;0.80;;;0.80;;
751;SDS011;360;48.764;9.164;2022-09-29T12:21:35;1.90;;;0.80;;
751;SDS011;360;48.764;9.164;2022-09-29T12:24:05;1.73;;;0.90;;
751;SDS011;360;48.764;9.164;2022-09-29T12:26:35;1.33;;;1.23;;
751;SDS011;360;48.764;9.164;2022-09-29T12:29:03;2.20;;;1.33;;
751;SDS011;360;48.764;9.164;2022-09-29T12:31:32;1.33;;;0.97;;
751;SDS011;360;48.764;9.164;2022-09-29T12:34:02;2.83;;;1.43;;
751;SDS011;360;48.764;9.164;2022-09-29T12:36:33;2.50;;;0.97;;
751;SDS011;360;48.764;9.164;2022-09-29T12:42:01;1.43;;;1.13;;
751;SDS011;360;48.764;9.164;2022-09-29T12:44:30;2.70;;;1.10;;
751;SDS011;360;48.764;9.164;2022-09-29T12:47:01;2.83;;;0.97;;
751;SDS011;360;48.764;9.164;2022-09-29T12:49:32;1.00;;;0.80;;
751;SDS011;360;48.764;9.164;2022-09-29T12:52:02;0.90;;;0.70;;
751;SDS011;360;48.764;9.164;2022-09-29T12:54:32;1.10;;;0.80;;
751;SDS011;360;48.764;9.164;2022-09-29T12:57:02;1.80;;;0.97;;
751;SDS011;360;48.764;9.164;2022-09-29T12:59:32;1.73;;;1.37;;
751;SDS011;360;48.764;9.164;2022-09-29T13:02:03;4.87;;;1.33;;
751;SDS011;360;48.764;9.164;2022-09-29T13:10:21;1.20;;;0.93;;
751;SDS011;360;48.764;9.164;2022-09-29T13:13:02;3.00;;;1.00;;
751;SDS011;360;48.764;9.164;2022-09-29T13:15:41;1.67;;;1.10;;
751;SDS011;360;48.764;9.164;2022-09-29T13:18:18;1.47;;;1.30;;
751;SDS011;360;48.764;9.164;2022-09-29T13:23:32;1.20;;;0.63;;
751;SDS011;360;48.764;9.164;2022-09-29T13:29:09;2.23;;;0.77;;
751;SDS011;360;48.764;9.164;2022-09-29T13:31:38;1.93;;;0.80;;
751;SDS011;360;48.764;9.164;2022-09-29T13:34:15;1.20;;;1.10;;
751;SDS011;360;48.764;9.164;2022-09-29T13:36:45;2.80;;;1.00;;
751;SDS011;360;48.764;9.164;2022-09-29T13:39:18;1.83;;;1.07;;
751;SDS011;360;48.764;9.164;2022-09-29T13:41:47;1.00;;;0.90;;
751;SDS011;360;48.764;9.164;2022-09-29T13:44:22;2.00;;;1.20;;
751;SDS011;360;48.764;9.164;2022-09-29T13:46:52;1.57;;;1.00;;
751;SDS011;360;48.764;9.164;2022-09-29T13:49:28;3.80;;;1.70;;
751;SDS011;360;48.764;9.164;2022-09-29T13:51:56;1.93;;;1.33;;
751;SDS011;360;48.764;9.164;2022-09-29T13:54:34;5.77;;;3.40;;
751;SDS011;360;48.764;9.164;2022-09-29T14:03:03;3.53;;;1.87;;
751;SDS011;360;48.764;9.164;2022-09-29T14:08:42;1.83;;;1.23;;
751;SDS011;360;48.764;9.164;2022-09-29T14:11:15;1.33;;;1.13;;
751;SDS011;360;48.764;9.164;2022-09-29T14:13:47;1.50;;;1.10;;
751;SDS011;360;48.764;9.164;2022-09-29T14:16:24;1.00;;;0.80;;
751;SDS011;360;48.764;9.164;2022-09-29T14:18:59;2.40;;;1.70;;
751;SDS011;360;48.764;9.164;2022-09-29T14:21:45;3.80;;;1.47;;
751;SDS011;360;48.764;9.164;2022-09-29T14:27:24;4.07;;;1.30;;
751;SDS011;360;48.764;9.164;2022-09-29T14:29:54;1.50;;;1.40;;
751;SDS011;360;48.764;9.164;2022-09-29T14:32:32;2.20;;;1.57;;
751;SDS011;360;48.764;9.164;2022-09-29T14:35:12;1.30;;;1.13;;
751;SDS011;360;48.764;9.164;2022-09-29T14:37:45;3.67;;;1.53;;
751;SDS011;360;48.764;9.164;2022-09-29T14:40:17;4.77;;;1.57;;
751;SDS011;360;48.764;9.164;2022-09-29T14:43:10;2.13;;;0.90;;
751;SDS011;360;48.764;9.164;2022-09-29T14:45:44;5.00;;;1.63;;
751;SDS011;360;48.764;9.164;2022-09-29T14:48:51;3.90;;;1.70;;
751;SDS011;360;48.764;9.164;2022-09-29T14:51:41;6.27;;;3.10;;
751;SDS011;360;48.764;9.164;2022-09-29T14:54:26;3.50;;;2.67;;
751;SDS011;360;48.764;9.164;2022-09-29T14:57:05;2.53;;;1.87;;
751;SDS011;360;48.764;9.164;2022-09-29T14:59:46;1.87;;;1.13;;
751;SDS011;360;48.764;9.164;2022-09-29T15:02:24;5.70;;;1.63;;
751;SDS011;360;48.764;9.164;2022-09-29T15:04:54;1.47;;;1.17;;
751;SDS011;360;48.764;9.164;2022-09-29T15:07:22;3.00;;;1.93;;
751;SDS011;360;48.764;9.164;2022-09-29T15:09:51;3.10;;;1.70;;
751;SDS011;360;48.764;9.164;2022-09-29T15:12:19;2.83;;;1.33;;
751;SDS011;360;48.764;9.164;2022-09-29T15:14:47;6.97;;;1.60;;
751;SDS011;360;48.764;9.164;2022-09-29T15:17:17;6.27;;;1.80;;
751;SDS011;360;48.764;9.164;2022-09-29T15:19:56;3.13;;;1.33;;
751;SDS011;360;48.764;9.164;2022-09-29T15:22:39;3.63;;;1.60;;
751;SDS011;360;48.764;9.164;2022-09-29T15:25:24;3.60;;;1.57;;
751;SDS011;360;48.764;9.164;2022-09-29T15:27:55;3.47;;;2.10;;
751;SDS011;360;48.764;9.164;2022-09-29T15:30:24;3.73;;;1.83;;
751;SDS011;360;48.764;9.164;2022-09-29T15:32:53;2.43;;;1.63;;
751;SDS011;360;48.764;9.164;2022-09-29T15:35:42;3.30;;;1.40;;
751;SDS011;360;48.764;9.164;2022-09-29T15:38:16;2.00;;;1.27;;
751;SDS011;360;48.764;9.164;2022-09-29T15:40:56;3.53;;;1.67;;
751;SDS011;360;48.764;9.164;2022-09-29T15:43:25;2.47;;;1.73;;
751;SDS011;360;48.764;9.164;2022-09-29T15:45:54;3.23;;;1.20;;
751;SDS011;360;48.764;9.164;2022-09-29T15:48:24;3.33;;;1.90;;
751;SDS011;360;48.764;9.164;2022-09-29T15:50:53;2.70;;;1.30;;
751;SDS011;360;48.764;9.164;2022-09-29T15:53:23;2.47;;;1.50;;
751;SDS011;360;48.764;9.164;2022-09-29T15:55:51;3.87;;;1.63;;
751;SDS011;360;48.764;9.164;2022-09-29T15:58:35;2.67;;;1.60;;
751;SDS011;360;48.764;9.164;2022-09-29T16:01:11;2.23;;;1.70;;
751;SDS011;360;48.764;9.164;2022-09-29T16:03:40;3.53;;;1.67;;
751;SDS011;360;48.764;9.164;2022-09-29T16:06:18;1.70;;;1.40;;
751;SDS011;360;48.764;9.164;2022-09-29T16:08:49;4.13;;;2.03;;
751;SDS011;360;48.764;9.164;2022-09-29T16:11:20;3.33;;;2.00;;
751;SDS011;360;48.764;9.164;2022-09-29T16:13:50;7.60;;;1.83;;
751;SDS011;360;48.764;9.164;2022-09-29T16:16:30;5.17;;;3.20;;
751;SDS011;360;48.764;9.164;2022-09-29T16:19:01;7.80;;;3.50;;
751;SDS011;360;48.764;9.164;2022-09-29T16:21:35;7.60;;;3.70;;
751;SDS011;360;48.764;9.164;2022-09-29T16:24:09;4.50;;;2.13;;
751;SDS011;360;48.764;9.164;2022-09-29T16:26:43;3.17;;;2.37;;
751;SDS011;360;48.764;9.164;2022-09-29T16:31:58;2.00;;;1.80;;
751;SDS011;360;48.764;9.164;2022-09-29T16:34:28;2.43;;;1.57;;
751;SDS011;360;48.764;9.164;2022-09-29T16:36:58;2.40;;;1.20;;
751;SDS011;360;48.764;9.164;2022-09-29T16:39:27;6.07;;;1.80;;
751;SDS011;360;48.764;9.164;2022-09-29T16:41:57;2.70;;;1.47;;
751;SDS011;360;48.764;9.164;2022-09-29T16:44:28;2.93;;;1.47;;
751;SDS011;360;48.764;9.164;2022-09-29T16:46:57;2.70;;;1.63;;
751;SDS011;360;48.764;9.164;2022-09-29T16:49:26;2.20;;;2.10;;